Latest Weather Observations for Mackay

IDQ60801

Issued at 6:35 pm EST Monday 21 April 2014 (issued every 30 minutes, with the page automatically refreshed every 10 minutes)

About weather observations | Map of weather stations | Latest weather observations for QLD | Other Formats
Station Details ID: 033119 Name: MACKAY M.O Lat: -21.12 Lon: 149.22 Height: 30.26 m
Data from the previous 72 hours. | See also: Recent months at Mackay
Date/Time
EST
Temp
°C
App
Temp
°C
Dew
Point
Rel
Hum
%
Delta-T
°C
Wind Press
QNH
hPa
Press
MSL
hPa
Rain
since 9 am
mm
Dir
 
Spd
km/h
Gust
km/h
Spd
kts
Gust
kts
21/06:30pm 24.6 23.9 15.5 57 5.5 E 13 20 7 11 1017.7 - 0.0
21/06:00pm 24.6 23.9 15.5 57 5.5 ESE 13 19 7 10 1017.5 1017.3 0.0
21/05:30pm 24.7 23.9 15.0 54 5.8 ESE 13 20 7 11 1017.3 - 0.0
21/05:00pm 25.3 24.8 15.9 56 5.7 E 13 19 7 10 1017.2 1017.0 0.0
21/04:30pm 25.7 25.2 15.9 54 6.0 ESE 13 20 7 11 1016.8 - 0.0
21/04:00pm 25.8 24.7 15.4 52 6.3 E 15 22 8 12 1016.5 1016.3 0.0
21/03:30pm 26.1 25.3 15.0 50 6.7 E 13 20 7 11 1016.3 - 0.0
21/03:00pm 26.3 25.6 15.4 51 6.6 E 13 22 7 12 1016.2 1016.0 0.0
21/02:30pm 26.5 25.9 15.7 51 6.6 E 13 20 7 11 1016.3 - 0.0
21/02:00pm 26.8 26.1 16.4 53 6.4 ESE 15 24 8 13 1016.4 1016.2 0.0
21/01:30pm 26.4 25.1 15.9 52 6.4 ESE 17 26 9 14 1016.7 - 0.0
21/01:00pm 27.0 26.2 17.1 54 6.2 ESE 17 26 9 14 1017.1 1016.9 0.0
21/12:30pm 26.6 26.1 16.8 55 6.1 ESE 15 26 8 14 1017.4 - 0.0
21/12:00pm 26.3 26.5 17.7 59 5.4 ESE 13 22 7 12 1017.6 1017.4 0.0
21/11:30am 26.7 26.7 17.1 55 6.0 ESE 13 22 7 12 1018.1 - 0.0
21/11:00am 26.7 26.1 15.7 51 6.7 E 13 19 7 10 1018.5 1018.3 0.0
21/10:30am 26.4 24.7 14.7 48 7.0 E 17 28 9 15 1018.8 - 0.0
21/10:00am 26.4 24.4 14.9 49 6.9 E 19 26 10 14 1018.8 1018.6 0.0
21/09:30am 23.8 25.2 17.9 69 3.7 SSW 7 11 4 6 1018.8 - 0.0
21/09:00am 22.0 22.4 17.3 74 2.9 SSW 11 13 6 7 1018.8 1018.6 0.0
21/08:30am 20.9 21.6 17.1 79 2.3 SSW 9 13 5 7 1018.6 - 0.0
21/08:00am 18.9 19.8 16.6 86 1.4 SSW 7 13 4 7 1018.4 1018.2 0.0
21/07:30am 18.5 18.1 16.1 86 1.4 SW 13 17 7 9 1018.1 - 0.0
21/07:00am 18.1 17.6 15.9 87 1.3 SW 13 17 7 9 1017.9 1017.7 0.0
21/06:30am 17.4 16.9 15.9 91 0.9 SW 13 19 7 10 1017.5 - 0.0
21/06:00am 17.6 17.2 16.3 92 0.8 SW 13 15 7 8 1017.2 1017.0 0.0
21/05:30am 17.7 16.9 16.2 91 0.9 SW 15 17 8 9 1016.9 - 0.0
21/05:00am 17.6 17.2 16.3 92 0.8 SW 13 17 7 9 1016.7 1016.5 0.0
21/04:30am 17.6 17.2 16.3 92 0.8 SW 13 15 7 8 1016.6 - 0.0
21/04:00am 17.8 17.4 16.3 91 0.9 SW 13 17 7 9 1016.4 1016.2 0.0
21/03:30am 17.8 17.5 16.5 92 0.8 SW 13 17 7 9 1016.4 - 0.0
21/03:00am 17.8 17.9 16.6 93 0.7 WSW 11 15 6 8 1016.4 1016.2 0.0
21/02:30am 17.9 17.7 16.6 92 0.8 SW 13 15 7 8 1016.4 - 0.0
21/02:00am 18.3 18.4 16.6 90 1.0 SW 11 15 6 8 1016.6 1016.4 0.0
21/01:30am 18.4 18.2 16.7 90 1.0 SW 13 17 7 9 1016.8 - 0.0
21/01:00am 18.6 18.7 16.6 88 1.2 SW 11 15 6 8 1017.0 1016.8 0.0
21/12:30am 19.1 18.9 16.8 86 1.4 SW 13 17 7 9 1017.3 - 0.0
21/12:00am 19.2 19.8 16.9 86 1.4 SW 9 13 5 7 1017.5 1017.3 0.0
 
Date/Time
EST
Temp
°C
App
Temp
°C
Dew
Point
Rel
Hum
%
Delta-T
°C
Wind Press
QNH
hPa
Press
MSL
hPa
Rain
since 9 am
mm
Dir
 
Spd
km/h
Gust
km/h
Spd
kts
Gust
kts
20/11:30pm 19.8 20.2 17.2 85 1.6 WSW 11 15 6 8 1017.7 - 0.0
20/11:00pm 21.6 22.4 16.3 72 3.2 S 7 13 4 7 1017.8 1017.6 0.0
20/10:30pm 24.3 23.5 14.1 53 6.0 E 11 17 6 9 1017.8 - 0.0
20/10:00pm 24.6 23.3 13.7 50 6.4 E 13 19 7 10 1017.9 1017.7 0.0
20/09:30pm 24.7 23.6 13.2 48 6.7 ESE 11 19 6 10 1017.9 - 0.0
20/09:00pm 24.3 23.7 14.7 55 5.7 ESE 11 19 6 10 1017.9 1017.7 0.0
20/08:30pm 24.7 23.6 14.4 52 6.1 ESE 13 19 7 10 1017.8 - 0.0
20/08:00pm 24.8 24.0 14.1 51 6.3 E 11 19 6 10 1017.6 1017.4 0.0
20/07:30pm 24.4 23.6 15.0 55 5.6 E 13 20 7 11 1017.3 - 0.0
20/07:00pm 24.3 24.0 15.5 58 5.3 ESE 11 19 6 10 1016.8 1016.6 0.0
20/06:30pm 24.8 24.0 14.1 51 6.3 ESE 11 19 6 10 1016.6 - 0.0
20/06:00pm 24.6 24.2 15.3 56 5.6 ESE 11 17 6 9 1016.2 1016.0 0.0
20/05:30pm 24.8 25.0 15.7 57 5.5 ESE 9 15 5 8 1016.0 - 0.0
20/05:00pm 25.4 26.0 16.8 59 5.3 ESE 9 17 5 9 1015.8 1015.6 0.0
20/04:30pm 25.6 25.7 16.5 57 5.6 ESE 11 17 6 9 1015.5 - 0.0
20/04:00pm 26.3 26.6 17.0 56 5.8 ESE 11 17 6 9 1015.4 1015.2 0.0
20/03:30pm 26.4 26.8 17.3 57 5.7 ESE 11 19 6 10 1015.3 - 0.0
20/03:00pm 26.1 26.4 17.1 57 5.6 ESE 11 19 6 10 1015.1 1014.9 0.0
20/02:30pm 26.4 26.8 17.3 57 5.7 E 11 17 6 9 1015.1 - 0.0
20/02:00pm 26.9 28.2 18.4 59 5.4 ESE 9 17 5 9 1015.1 1014.9 0.0
20/01:30pm 26.9 27.7 18.2 59 5.5 ESE 11 17 6 9 1015.4 - 0.0
20/01:00pm 26.7 28.8 20.1 67 4.3 SE 9 15 5 8 1015.7 1015.5 0.0
20/12:30pm 26.3 28.0 19.3 65 4.5 SSE 9 19 5 10 1016.0 - 0.0
20/12:00pm 25.8 26.9 18.9 65 4.4 SSE 11 17 6 9 1016.3 1016.1 0.0
20/11:30am 26.0 27.8 19.5 67 4.2 SE 9 15 5 8 1016.7 - 0.0
20/11:00am 26.0 27.9 19.7 68 4.1 SE 9 15 5 8 1017.0 1016.8 0.0
20/10:30am 25.7 27.4 19.3 67 4.1 SE 9 13 5 7 1017.4 - 0.0
20/10:00am 25.5 27.4 18.9 67 4.2 SE 7 13 4 7 1017.5 1017.3 0.0
20/09:30am 25.0 27.6 19.2 70 3.7 S 4 9 2 5 1017.5 - 0.0
20/09:00am 24.0 25.8 19.5 76 2.9 SW 9 11 5 6 1017.2 1017.0 0.0
20/08:30am 22.0 23.6 19.2 84 1.8 SW 9 13 5 7 1016.8 - 0.0
20/08:00am 20.8 22.0 19.1 90 1.1 SW 11 13 6 7 1016.5 1016.3 0.0
20/07:30am 19.7 20.2 18.4 92 0.8 WSW 13 17 7 9 1016.2 - 0.0
20/07:00am 18.7 19.0 17.9 95 0.5 SW 13 17 7 9 1015.9 1015.7 0.0
20/06:30am 18.5 18.7 17.7 95 0.5 SW 13 19 7 10 1015.6 - 0.0
20/06:00am 18.6 19.2 17.8 95 0.5 WSW 11 15 6 8 1015.4 1015.2 0.0
20/05:30am 18.7 19.0 18.0 96 0.4 SW 13 15 7 8 1015.2 - 0.0
20/05:00am 19.0 19.8 18.2 95 0.5 WSW 11 15 6 8 1015.0 1014.8 0.0
20/04:30am 19.0 19.8 18.2 95 0.5 SW 11 15 6 8 1014.9 - 0.0
20/04:00am 19.0 19.9 18.4 96 0.4 SW 11 15 6 8 1014.7 1014.5 0.0
20/03:30am 19.0 19.9 18.4 96 0.4 SW 11 15 6 8 1014.7 - 0.0
20/03:00am 19.2 20.2 18.6 96 0.4 SW 11 15 6 8 1014.7 1014.5 0.0
20/02:30am 19.4 20.4 18.6 95 0.5 SW 11 13 6 7 1014.9 - 0.0
20/02:00am 19.8 20.7 18.5 92 0.8 SW 11 13 6 7 1015.0 1014.8 0.0
20/01:30am 19.7 22.4 18.6 93 0.7 NW 2 9 1 5 1014.9 - 0.0
20/01:00am 20.0 21.4 18.7 92 0.8 WSW 9 11 5 6 1015.3 1015.1 0.0
20/12:30am 20.2 21.7 18.9 92 0.8 SW 9 11 5 6 1015.6 - 0.0
20/12:00am 20.4 21.4 18.6 89 1.1 SW 11 11 6 6 1015.7 1015.5 0.0
 
Date/Time
EST
Temp
°C
App
Temp
°C
Dew
Point
Rel
Hum
%
Delta-T
°C
Wind Press
QNH
hPa
Press
MSL
hPa
Rain
since 9 am
mm
Dir
 
Spd
km/h
Gust
km/h
Spd
kts
Gust
kts
19/11:30pm 20.5 21.9 18.6 89 1.2 SW 9 11 5 6 1015.7 - 0.0
19/11:00pm 20.6 21.7 18.8 89 1.1 SW 11 11 6 6 1015.9 1015.7 0.0
19/10:30pm 21.5 23.2 18.1 81 2.1 NNE 6 15 3 8 1015.9 - 0.0
19/10:00pm 22.4 23.4 16.8 70 3.4 NE 7 11 4 6 1015.8 1015.6 0.0
19/09:30pm 22.5 23.5 16.8 70 3.5 NE 7 11 4 6 1015.9 - 0.0
19/09:00pm 22.4 23.9 17.6 74 3.0 NNE 6 11 3 6 1016.0 1015.8 0.0
19/08:30pm 22.7 24.3 17.9 74 3.0 NNE 6 9 3 5 1016.0 - 0.0
19/08:00pm 22.9 24.5 17.8 73 3.2 NNE 6 7 3 4 1015.9 1015.7 0.0
19/07:30pm 23.2 24.6 17.7 71 3.4 NE 7 11 4 6 1015.6 - 0.0
19/07:00pm 23.4 24.8 17.8 71 3.5 NE 7 11 4 6 1015.2 1015.0 0.0
19/06:30pm 23.6 24.6 17.7 69 3.7 NE 9 11 5 6 1014.9 - 0.0
19/06:00pm 23.3 24.8 18.0 72 3.3 NE 7 11 4 6 1014.5 1014.3 0.0
19/05:30pm 24.1 25.5 18.7 72 3.4 NE 9 13 5 7 1014.4 - 0.0
19/05:00pm 25.3 27.3 19.2 69 3.9 NE 7 13 4 7 1014.3 1014.1 0.0
19/04:30pm 26.0 27.7 19.3 66 4.3 NE 9 15 5 8 1014.1 - 0.0
19/04:00pm 26.4 27.5 18.9 63 4.8 NE 11 17 6 9 1014.0 1013.8 0.0
19/03:30pm 27.0 28.5 18.9 61 5.2 NE 9 17 5 9 1014.0 - 0.0
19/03:00pm 26.8 28.1 19.4 64 4.8 NE 11 17 6 9 1014.1 1013.9 0.0
19/02:30pm 27.2 29.0 20.3 66 4.5 ENE 11 19 6 10 1014.3 - 0.0
19/02:00pm 27.4 29.1 20.1 64 4.8 NE 11 22 6 12 1014.5 1014.3 0.0
19/01:30pm 27.2 28.8 20.0 64 4.7 ENE 11 15 6 8 1014.9 - 0.0
19/01:00pm 27.3 29.0 20.1 64 4.7 ENE 11 19 6 10 1015.3 1015.1 0.0
19/12:30pm 26.6 28.0 19.5 65 4.6 ENE 11 17 6 9 1015.7 - 0.0
19/12:00pm 26.4 28.0 19.1 64 4.7 ENE 9 17 5 9 1016.0 1015.8 0.0
19/11:37am 26.9 28.6 20.2 66 4.4 ENE 11 15 6 8 1016.3 - 0.0
19/11:30am 27.1 29.3 20.4 66 4.4 E 9 13 5 7 1016.4 - 0.0
19/11:00am 26.5 28.4 19.7 66 4.4 E 9 17 5 9 1016.8 1016.6 0.0
19/10:30am 26.0 27.8 19.5 67 4.2 E 9 13 5 7 1017.2 - 0.0
19/10:00am 25.9 27.8 19.0 65 4.4 ESE 7 11 4 6 1017.3 1017.1 0.0
19/09:30am 26.1 29.1 20.9 73 3.4 SSE 6 13 3 7 1017.3 - 0.0
19/09:00am 25.0 27.6 20.4 75 3.0 S 7 11 4 6 1017.3 1017.1 0.0
19/08:30am 23.5 26.2 20.6 84 1.9 SSW 7 11 4 6 1017.1 - 0.0
19/08:00am 22.2 23.8 20.0 87 1.4 SSW 11 15 6 8 1016.9 1016.7 0.0
19/07:30am 21.1 23.0 19.8 92 0.8 SW 9 13 5 7 1016.6 - 0.0
19/07:00am 20.1 21.4 19.3 95 0.5 SW 11 15 6 8 1016.7 1016.5 0.0
19/06:30am 19.9 21.1 19.1 95 0.5 SW 11 15 6 8 1016.4 - 0.0
19/06:00am 19.9 21.6 19.3 96 0.4 WSW 9 13 5 7 1016.1 1015.9 0.0
19/05:30am 19.8 21.1 19.2 96 0.4 SW 11 15 6 8 1015.9 - 0.0
19/05:00am 19.9 21.6 19.4 97 0.3 WSW 9 13 5 7 1015.6 1015.4 0.0
19/04:30am 20.0 21.8 19.5 97 0.3 SW 9 13 5 7 1015.5 - 0.0
19/04:00am 20.3 21.7 19.5 95 0.5 SW 11 15 6 8 1015.4 1015.2 0.0
19/03:30am 20.5 22.0 19.7 95 0.5 SW 11 15 6 8 1015.3 - 0.0
19/03:00am 20.8 22.8 20.0 95 0.5 SW 9 11 5 6 1015.3 1015.1 0.0
19/02:30am 20.8 22.8 20.0 95 0.5 SW 9 11 5 6 1015.6 - 0.0
19/02:00am 20.8 22.8 19.9 95 0.6 SW 9 11 5 6 1015.8 1015.6 0.0
19/01:30am 21.0 23.1 20.1 95 0.6 WSW 9 13 5 7 1016.0 - 0.0
19/01:00am 21.5 23.7 20.3 93 0.8 WSW 9 11 5 6 1016.2 1016.0 0.0
19/12:30am 21.6 24.1 20.2 92 0.9 SW 7 9 4 5 1016.6 - 0.0
19/12:00am 21.7 24.1 20.1 91 1.0 SW 7 9 4 5 1016.7 1016.5 0.0
 
Date/Time
EST
Temp
°C
App
Temp
°C
Dew
Point
Rel
Hum
%
Delta-T
°C
Wind Press
QNH
hPa
Press
MSL
hPa
Rain
since 9 am
mm
Dir
 
Spd
km/h
Gust
km/h
Spd
kts
Gust
kts
18/11:30pm 22.2 24.6 20.0 87 1.4 WSW 7 11 4 6 1016.7 - 0.0
18/11:00pm 22.5 24.9 20.0 86 1.6 NNW 7 9 4 5 1016.6 1016.4 0.0
18/10:30pm 23.0 25.3 19.9 83 2.0 NNW 7 11 4 6 1016.8 - 0.0
18/10:00pm 23.1 25.6 20.2 84 1.9 NNW 7 9 4 5 1016.8 1016.6 0.0
18/09:30pm 23.3 25.9 20.4 84 1.9 NNW 7 9 4 5 1016.7 - 0.0
18/09:00pm 23.2 25.9 20.7 86 1.6 NW 7 7 4 4 1016.7 1016.5 0.0
18/08:30pm 23.5 26.0 20.3 82 2.1 N 7 7 4 4 1016.5 - 0.0
18/08:00pm 23.7 26.3 20.0 80 2.4 N 6 9 3 5 1016.3 1016.1 0.0
18/07:30pm 23.9 26.4 19.9 78 2.6 N 6 7 3 4 1015.8 - 0.0
18/07:00pm 24.3 26.7 20.0 77 2.8 NNE 7 11 4 6 1015.4 1015.2 0.0

Other Formats:

Comma delimited format used in spreadsheet applications
http://www.bom.gov.au/fwo/IDQ60801/IDQ60801.94367.axf

JavaScript Object Notation format (JSON) in row-major order
http://www.bom.gov.au/fwo/IDQ60801/IDQ60801.94367.json